sensor_id;sensor_type;location;lat;lon;timestamp;P1;durP1;ratioP1;P2;durP2;ratioP2
81703;SDS011;71117;52.352;4.808;2024-03-08T00:00:02;0.20;;;0.20;;
81703;SDS011;71117;52.352;4.808;2024-03-08T00:02:38;2.38;;;2.17;;
81703;SDS011;71117;52.352;4.808;2024-03-08T00:05:05;0.70;;;0.70;;
81703;SDS011;71117;52.352;4.808;2024-03-08T00:07:31;0.32;;;0.28;;
81703;SDS011;71117;52.352;4.808;2024-03-08T00:09:56;0.45;;;0.45;;
81703;SDS011;71117;52.352;4.808;2024-03-08T00:12:22;0.03;;;0.03;;
81703;SDS011;71117;52.352;4.808;2024-03-08T00:14:47;0.38;;;0.38;;
81703;SDS011;71117;52.352;4.808;2024-03-08T00:17:13;0.00;;;0.00;;
81703;SDS011;71117;52.352;4.808;2024-03-08T00:19:40;0.00;;;0.00;;
81703;SDS011;71117;52.352;4.808;2024-03-08T00:22:06;0.73;;;0.65;;
81703;SDS011;71117;52.352;4.808;2024-03-08T00:24:32;0.30;;;0.30;;
81703;SDS011;71117;52.352;4.808;2024-03-08T00:26:58;0.00;;;0.00;;
81703;SDS011;71117;52.352;4.808;2024-03-08T00:29:23;0.05;;;0.05;;
81703;SDS011;71117;52.352;4.808;2024-03-08T00:31:49;0.75;;;0.45;;
81703;SDS011;71117;52.352;4.808;2024-03-08T00:34:14;1.13;;;1.10;;
81703;SDS011;71117;52.352;4.808;2024-03-08T00:36:39;0.33;;;0.33;;
81703;SDS011;71117;52.352;4.808;2024-03-08T00:39:04;0.40;;;0.40;;
81703;SDS011;71117;52.352;4.808;2024-03-08T00:41:31;0.17;;;0.17;;
81703;SDS011;71117;52.352;4.808;2024-03-08T00:43:57;2.83;;;1.15;;
81703;SDS011;71117;52.352;4.808;2024-03-08T00:46:23;1.23;;;1.13;;
81703;SDS011;71117;52.352;4.808;2024-03-08T00:48:48;0.77;;;0.52;;
81703;SDS011;71117;52.352;4.808;2024-03-08T00:51:13;0.55;;;0.30;;
81703;SDS011;71117;52.352;4.808;2024-03-08T00:53:40;0.30;;;0.30;;
81703;SDS011;71117;52.352;4.808;2024-03-08T00:56:06;0.03;;;0.03;;
81703;SDS011;71117;52.352;4.808;2024-03-08T00:58:35;0.15;;;0.13;;
81703;SDS011;71117;52.352;4.808;2024-03-08T01:01:01;0.00;;;0.00;;
81703;SDS011;71117;52.352;4.808;2024-03-08T01:03:26;0.15;;;0.15;;
81703;SDS011;71117;52.352;4.808;2024-03-08T01:05:52;0.97;;;0.97;;
81703;SDS011;71117;52.352;4.808;2024-03-08T01:08:17;0.20;;;0.20;;
81703;SDS011;71117;52.352;4.808;2024-03-08T01:10:42;2.03;;;1.88;;
81703;SDS011;71117;52.352;4.808;2024-03-08T01:13:07;0.20;;;0.20;;
81703;SDS011;71117;52.352;4.808;2024-03-08T01:15:34;0.00;;;0.00;;
81703;SDS011;71117;52.352;4.808;2024-03-08T01:17:59;0.00;;;0.00;;
81703;SDS011;71117;52.352;4.808;2024-03-08T01:20:25;0.17;;;0.17;;
81703;SDS011;71117;52.352;4.808;2024-03-08T01:22:51;0.00;;;0.00;;
81703;SDS011;71117;52.352;4.808;2024-03-08T01:25:17;0.03;;;0.03;;
81703;SDS011;71117;52.352;4.808;2024-03-08T01:27:42;2.20;;;0.32;;
81703;SDS011;71117;52.352;4.808;2024-03-08T01:30:07;0.93;;;0.93;;
81703;SDS011;71117;52.352;4.808;2024-03-08T01:32:34;2.17;;;0.82;;
81703;SDS011;71117;52.352;4.808;2024-03-08T01:34:59;0.40;;;0.05;;
81703;SDS011;71117;52.352;4.808;2024-03-08T01:37:25;0.17;;;0.17;;
81703;SDS011;71117;52.352;4.808;2024-03-08T01:39:50;0.63;;;0.60;;
81703;SDS011;71117;52.352;4.808;2024-03-08T01:42:15;0.80;;;0.80;;
81703;SDS011;71117;52.352;4.808;2024-03-08T01:44:42;0.85;;;0.22;;
81703;SDS011;71117;52.352;4.808;2024-03-08T01:47:08;1.67;;;1.55;;
81703;SDS011;71117;52.352;4.808;2024-03-08T01:49:36;1.17;;;0.75;;
81703;SDS011;71117;52.352;4.808;2024-03-08T01:52:02;0.95;;;0.95;;
81703;SDS011;71117;52.352;4.808;2024-03-08T01:54:28;0.00;;;0.00;;
81703;SDS011;71117;52.352;4.808;2024-03-08T01:56:55;0.52;;;0.52;;
81703;SDS011;71117;52.352;4.808;2024-03-08T01:59:22;0.88;;;0.82;;
81703;SDS011;71117;52.352;4.808;2024-03-08T02:01:48;0.20;;;0.20;;
81703;SDS011;71117;52.352;4.808;2024-03-08T02:04:14;1.15;;;1.15;;
81703;SDS011;71117;52.352;4.808;2024-03-08T02:06:39;0.10;;;0.10;;
81703;SDS011;71117;52.352;4.808;2024-03-08T02:09:04;0.20;;;0.20;;
81703;SDS011;71117;52.352;4.808;2024-03-08T02:11:33;0.57;;;0.50;;
81703;SDS011;71117;52.352;4.808;2024-03-08T02:13:59;0.47;;;0.47;;
81703;SDS011;71117;52.352;4.808;2024-03-08T02:16:24;0.20;;;0.20;;
81703;SDS011;71117;52.352;4.808;2024-03-08T02:18:50;0.60;;;0.60;;
81703;SDS011;71117;52.352;4.808;2024-03-08T02:21:16;0.20;;;0.20;;
81703;SDS011;71117;52.352;4.808;2024-03-08T02:23:46;0.00;;;0.00;;
81703;SDS011;71117;52.352;4.808;2024-03-08T02:26:11;0.00;;;0.00;;
81703;SDS011;71117;52.352;4.808;2024-03-08T02:28:37;0.00;;;0.00;;
81703;SDS011;71117;52.352;4.808;2024-03-08T02:31:03;0.10;;;0.10;;
81703;SDS011;71117;52.352;4.808;2024-03-08T02:33:33;1.27;;;0.93;;
81703;SDS011;71117;52.352;4.808;2024-03-08T02:35:58;0.22;;;0.22;;
81703;SDS011;71117;52.352;4.808;2024-03-08T02:38:24;0.52;;;0.52;;
81703;SDS011;71117;52.352;4.808;2024-03-08T02:40:49;0.20;;;0.20;;
81703;SDS011;71117;52.352;4.808;2024-03-08T02:43:16;0.38;;;0.38;;
81703;SDS011;71117;52.352;4.808;2024-03-08T02:45:43;0.17;;;0.10;;
81703;SDS011;71117;52.352;4.808;2024-03-08T02:48:09;0.63;;;0.63;;
81703;SDS011;71117;52.352;4.808;2024-03-08T02:50:36;0.00;;;0.00;;
81703;SDS011;71117;52.352;4.808;2024-03-08T02:53:02;1.02;;;0.85;;
81703;SDS011;71117;52.352;4.808;2024-03-08T02:55:27;0.10;;;0.10;;
81703;SDS011;71117;52.352;4.808;2024-03-08T02:57:53;0.28;;;0.28;;
81703;SDS011;71117;52.352;4.808;2024-03-08T03:00:21;0.00;;;0.00;;
81703;SDS011;71117;52.352;4.808;2024-03-08T03:02:48;1.83;;;0.50;;
81703;SDS011;71117;52.352;4.808;2024-03-08T03:05:18;0.20;;;0.20;;
81703;SDS011;71117;52.352;4.808;2024-03-08T03:07:47;0.20;;;0.15;;
81703;SDS011;71117;52.352;4.808;2024-03-08T03:10:13;1.08;;;1.00;;
81703;SDS011;71117;52.352;4.808;2024-03-08T03:12:41;0.00;;;0.00;;
81703;SDS011;71117;52.352;4.808;2024-03-08T03:15:07;0.00;;;0.00;;
81703;SDS011;71117;52.352;4.808;2024-03-08T03:17:33;0.40;;;0.40;;
81703;SDS011;71117;52.352;4.808;2024-03-08T03:19:58;0.57;;;0.57;;
81703;SDS011;71117;52.352;4.808;2024-03-08T03:22:23;0.93;;;0.93;;
81703;SDS011;71117;52.352;4.808;2024-03-08T03:24:50;0.30;;;0.20;;
81703;SDS011;71117;52.352;4.808;2024-03-08T03:27:16;0.73;;;0.73;;
81703;SDS011;71117;52.352;4.808;2024-03-08T03:29:43;0.03;;;0.03;;
81703;SDS011;71117;52.352;4.808;2024-03-08T03:32:11;1.35;;;0.57;;
81703;SDS011;71117;52.352;4.808;2024-03-08T03:34:37;1.55;;;1.00;;
81703;SDS011;71117;52.352;4.808;2024-03-08T03:37:07;1.00;;;0.93;;
81703;SDS011;71117;52.352;4.808;2024-03-08T03:39:33;0.52;;;0.52;;
81703;SDS011;71117;52.352;4.808;2024-03-08T03:42:02;1.63;;;1.52;;
81703;SDS011;71117;52.352;4.808;2024-03-08T03:44:28;0.00;;;0.00;;
81703;SDS011;71117;52.352;4.808;2024-03-08T03:46:53;0.63;;;0.63;;
81703;SDS011;71117;52.352;4.808;2024-03-08T03:49:19;0.63;;;0.63;;
81703;SDS011;71117;52.352;4.808;2024-03-08T03:51:44;3.30;;;2.05;;
81703;SDS011;71117;52.352;4.808;2024-03-08T03:54:10;1.77;;;1.00;;
81703;SDS011;71117;52.352;4.808;2024-03-08T03:56:36;1.65;;;1.10;;
81703;SDS011;71117;52.352;4.808;2024-03-08T03:59:01;0.63;;;0.52;;
81703;SDS011;71117;52.352;4.808;2024-03-08T04:01:26;0.73;;;0.73;;
81703;SDS011;71117;52.352;4.808;2024-03-08T04:03:52;0.52;;;0.52;;
81703;SDS011;71117;52.352;4.808;2024-03-08T04:06:17;1.17;;;0.68;;
81703;SDS011;71117;52.352;4.808;2024-03-08T04:08:42;0.35;;;0.35;;
81703;SDS011;71117;52.352;4.808;2024-03-08T04:11:08;0.28;;;0.28;;
81703;SDS011;71117;52.352;4.808;2024-03-08T04:13:35;0.10;;;0.10;;
81703;SDS011;71117;52.352;4.808;2024-03-08T04:16:03;1.25;;;1.20;;
81703;SDS011;71117;52.352;4.808;2024-03-08T04:18:32;2.78;;;0.32;;
81703;SDS011;71117;52.352;4.808;2024-03-08T04:21:00;0.08;;;0.08;;
81703;SDS011;71117;52.352;4.808;2024-03-08T04:23:27;0.45;;;0.45;;
81703;SDS011;71117;52.352;4.808;2024-03-08T04:25:53;0.45;;;0.45;;
81703;SDS011;71117;52.352;4.808;2024-03-08T04:28:19;0.40;;;0.40;;
81703;SDS011;71117;52.352;4.808;2024-03-08T04:30:44;0.85;;;0.85;;
81703;SDS011;71117;52.352;4.808;2024-03-08T04:33:11;0.00;;;0.00;;
81703;SDS011;71117;52.352;4.808;2024-03-08T04:35:36;0.08;;;0.08;;
81703;SDS011;71117;52.352;4.808;2024-03-08T04:38:01;0.77;;;0.43;;
81703;SDS011;71117;52.352;4.808;2024-03-08T04:40:30;0.47;;;0.45;;
81703;SDS011;71117;52.352;4.808;2024-03-08T04:42:56;1.38;;;0.65;;
81703;SDS011;71117;52.352;4.808;2024-03-08T04:45:23;0.20;;;0.20;;
81703;SDS011;71117;52.352;4.808;2024-03-08T04:47:50;0.47;;;0.47;;
81703;SDS011;71117;52.352;4.808;2024-03-08T04:50:17;0.30;;;0.30;;
81703;SDS011;71117;52.352;4.808;2024-03-08T04:52:43;0.52;;;0.20;;
81703;SDS011;71117;52.352;4.808;2024-03-08T04:55:08;0.57;;;0.57;;
81703;SDS011;71117;52.352;4.808;2024-03-08T04:57:34;0.00;;;0.00;;
81703;SDS011;71117;52.352;4.808;2024-03-08T04:59:59;0.22;;;0.22;;
81703;SDS011;71117;52.352;4.808;2024-03-08T05:02:25;0.00;;;0.00;;
81703;SDS011;71117;52.352;4.808;2024-03-08T05:04:50;0.20;;;0.20;;
81703;SDS011;71117;52.352;4.808;2024-03-08T05:07:16;0.10;;;0.10;;
81703;SDS011;71117;52.352;4.808;2024-03-08T05:09:41;0.68;;;0.68;;
81703;SDS011;71117;52.352;4.808;2024-03-08T05:12:07;0.45;;;0.30;;
81703;SDS011;71117;52.352;4.808;2024-03-08T05:14:33;0.70;;;0.70;;
81703;SDS011;71117;52.352;4.808;2024-03-08T05:16:59;0.20;;;0.20;;
81703;SDS011;71117;52.352;4.808;2024-03-08T05:19:25;0.45;;;0.45;;
81703;SDS011;71117;52.352;4.808;2024-03-08T05:21:51;0.13;;;0.13;;
81703;SDS011;71117;52.352;4.808;2024-03-08T05:24:16;0.65;;;0.55;;
81703;SDS011;71117;52.352;4.808;2024-03-08T05:26:42;0.22;;;0.20;;
81703;SDS011;71117;52.352;4.808;2024-03-08T05:29:08;0.20;;;0.20;;
81703;SDS011;71117;52.352;4.808;2024-03-08T05:34:15;4.57;;;1.90;;
81703;SDS011;71117;52.352;4.808;2024-03-08T05:36:41;0.10;;;0.10;;
81703;SDS011;71117;52.352;4.808;2024-03-08T05:39:09;0.10;;;0.10;;
81703;SDS011;71117;52.352;4.808;2024-03-08T05:41:36;0.00;;;0.00;;
81703;SDS011;71117;52.352;4.808;2024-03-08T05:44:02;0.47;;;0.47;;
81703;SDS011;71117;52.352;4.808;2024-03-08T05:46:28;2.25;;;0.63;;
81703;SDS011;71117;52.352;4.808;2024-03-08T05:48:53;0.03;;;0.03;;
81703;SDS011;71117;52.352;4.808;2024-03-08T05:51:19;0.20;;;0.20;;
81703;SDS011;71117;52.352;4.808;2024-03-08T05:53:46;0.03;;;0.03;;
81703;SDS011;71117;52.352;4.808;2024-03-08T05:56:11;0.20;;;0.20;;
81703;SDS011;71117;52.352;4.808;2024-03-08T05:58:36;0.52;;;0.52;;
81703;SDS011;71117;52.352;4.808;2024-03-08T06:01:02;0.10;;;0.10;;
81703;SDS011;71117;52.352;4.808;2024-03-08T06:03:27;1.50;;;0.30;;
81703;SDS011;71117;52.352;4.808;2024-03-08T06:05:52;0.22;;;0.22;;
81703;SDS011;71117;52.352;4.808;2024-03-08T06:08:18;0.13;;;0.13;;
81703;SDS011;71117;52.352;4.808;2024-03-08T06:10:44;1.27;;;0.60;;
81703;SDS011;71117;52.352;4.808;2024-03-08T06:13:09;0.70;;;0.70;;
81703;SDS011;71117;52.352;4.808;2024-03-08T06:15:37;0.25;;;0.25;;
81703;SDS011;71117;52.352;4.808;2024-03-08T06:18:02;0.52;;;0.52;;
81703;SDS011;71117;52.352;4.808;2024-03-08T06:20:27;2.53;;;0.65;;
81703;SDS011;71117;52.352;4.808;2024-03-08T06:22:53;0.25;;;0.25;;
81703;SDS011;71117;52.352;4.808;2024-03-08T06:25:18;0.55;;;0.52;;
81703;SDS011;71117;52.352;4.808;2024-03-08T06:27:44;0.10;;;0.10;;
81703;SDS011;71117;52.352;4.808;2024-03-08T06:30:10;0.00;;;0.00;;
81703;SDS011;71117;52.352;4.808;2024-03-08T06:32:36;0.60;;;0.60;;
81703;SDS011;71117;52.352;4.808;2024-03-08T06:35:03;0.40;;;0.40;;
81703;SDS011;71117;52.352;4.808;2024-03-08T06:37:31;0.25;;;0.25;;
81703;SDS011;71117;52.352;4.808;2024-03-08T06:39:57;0.95;;;0.90;;
81703;SDS011;71117;52.352;4.808;2024-03-08T06:42:22;0.75;;;0.75;;
81703;SDS011;71117;52.352;4.808;2024-03-08T06:44:47;0.30;;;0.30;;
81703;SDS011;71117;52.352;4.808;2024-03-08T06:47:15;0.65;;;0.65;;
81703;SDS011;71117;52.352;4.808;2024-03-08T06:49:44;2.13;;;0.60;;
81703;SDS011;71117;52.352;4.808;2024-03-08T06:52:10;0.20;;;0.10;;
81703;SDS011;71117;52.352;4.808;2024-03-08T06:54:35;0.08;;;0.08;;
81703;SDS011;71117;52.352;4.808;2024-03-08T06:57:04;0.57;;;0.57;;
81703;SDS011;71117;52.352;4.808;2024-03-08T06:59:33;0.82;;;0.82;;
81703;SDS011;71117;52.352;4.808;2024-03-08T07:02:00;1.70;;;1.60;;
81703;SDS011;71117;52.352;4.808;2024-03-08T07:04:25;0.43;;;0.35;;
81703;SDS011;71117;52.352;4.808;2024-03-08T07:06:57;0.43;;;0.43;;
81703;SDS011;71117;52.352;4.808;2024-03-08T07:09:26;0.10;;;0.10;;
81703;SDS011;71117;52.352;4.808;2024-03-08T07:11:51;0.45;;;0.45;;
81703;SDS011;71117;52.352;4.808;2024-03-08T07:14:22;0.00;;;0.00;;
81703;SDS011;71117;52.352;4.808;2024-03-08T07:16:48;0.17;;;0.17;;
81703;SDS011;71117;52.352;4.808;2024-03-08T07:19:14;0.00;;;0.00;;
81703;SDS011;71117;52.352;4.808;2024-03-08T07:21:40;0.77;;;0.77;;
81703;SDS011;71117;52.352;4.808;2024-03-08T07:24:07;0.00;;;0.00;;
81703;SDS011;71117;52.352;4.808;2024-03-08T07:26:52;0.00;;;0.00;;
81703;SDS011;71117;52.352;4.808;2024-03-08T07:29:18;0.00;;;0.00;;
81703;SDS011;71117;52.352;4.808;2024-03-08T07:31:43;0.00;;;0.00;;
81703;SDS011;71117;52.352;4.808;2024-03-08T07:34:27;0.65;;;0.65;;
81703;SDS011;71117;52.352;4.808;2024-03-08T07:36:57;0.28;;;0.28;;
81703;SDS011;71117;52.352;4.808;2024-03-08T07:39:22;0.10;;;0.10;;
81703;SDS011;71117;52.352;4.808;2024-03-08T07:41:48;3.17;;;2.05;;
81703;SDS011;71117;52.352;4.808;2024-03-08T07:44:14;1.13;;;1.02;;
81703;SDS011;71117;52.352;4.808;2024-03-08T07:46:39;0.85;;;0.30;;
81703;SDS011;71117;52.352;4.808;2024-03-08T07:49:06;0.17;;;0.17;;
81703;SDS011;71117;52.352;4.808;2024-03-08T07:51:31;0.32;;;0.32;;
81703;SDS011;71117;52.352;4.808;2024-03-08T07:53:59;0.57;;;0.57;;
81703;SDS011;71117;52.352;4.808;2024-03-08T07:56:25;0.52;;;0.45;;
81703;SDS011;71117;52.352;4.808;2024-03-08T07:58:50;0.43;;;0.43;;
81703;SDS011;71117;52.352;4.808;2024-03-08T08:01:16;0.98;;;0.70;;
81703;SDS011;71117;52.352;4.808;2024-03-08T08:03:45;0.28;;;0.28;;
81703;SDS011;71117;52.352;4.808;2024-03-08T08:06:10;0.10;;;0.10;;
81703;SDS011;71117;52.352;4.808;2024-03-08T08:08:41;2.42;;;0.47;;
81703;SDS011;71117;52.352;4.808;2024-03-08T08:11:06;2.40;;;1.15;;
81703;SDS011;71117;52.352;4.808;2024-03-08T08:13:34;0.77;;;0.77;;
81703;SDS011;71117;52.352;4.808;2024-03-08T08:15:59;0.45;;;0.45;;
81703;SDS011;71117;52.352;4.808;2024-03-08T08:18:25;0.28;;;0.28;;
81703;SDS011;71117;52.352;4.808;2024-03-08T08:20:50;0.47;;;0.47;;
81703;SDS011;71117;52.352;4.808;2024-03-08T08:23:17;0.03;;;0.03;;
81703;SDS011;71117;52.352;4.808;2024-03-08T08:25:44;0.40;;;0.40;;
81703;SDS011;71117;52.352;4.808;2024-03-08T08:28:09;1.25;;;0.80;;
81703;SDS011;71117;52.352;4.808;2024-03-08T08:30:35;1.35;;;1.20;;
81703;SDS011;71117;52.352;4.808;2024-03-08T08:33:00;0.43;;;0.43;;
81703;SDS011;71117;52.352;4.808;2024-03-08T08:35:26;0.47;;;0.47;;
81703;SDS011;71117;52.352;4.808;2024-03-08T08:37:51;1.17;;;1.15;;
81703;SDS011;71117;52.352;4.808;2024-03-08T08:40:17;0.52;;;0.52;;
81703;SDS011;71117;52.352;4.808;2024-03-08T08:42:44;1.55;;;0.47;;
81703;SDS011;71117;52.352;4.808;2024-03-08T08:45:10;0.38;;;0.38;;
81703;SDS011;71117;52.352;4.808;2024-03-08T08:47:36;0.30;;;0.25;;
81703;SDS011;71117;52.352;4.808;2024-03-08T08:50:02;8.38;;;1.67;;
81703;SDS011;71117;52.352;4.808;2024-03-08T08:52:29;1.42;;;1.08;;
81703;SDS011;71117;52.352;4.808;2024-03-08T08:54:54;0.17;;;0.17;;
81703;SDS011;71117;52.352;4.808;2024-03-08T08:57:20;1.45;;;0.55;;
81703;SDS011;71117;52.352;4.808;2024-03-08T08:59:45;0.32;;;0.32;;
81703;SDS011;71117;52.352;4.808;2024-03-08T09:02:11;2.05;;;1.95;;
81703;SDS011;71117;52.352;4.808;2024-03-08T09:04:36;1.60;;;1.50;;
81703;SDS011;71117;52.352;4.808;2024-03-08T09:07:01;0.08;;;0.08;;
81703;SDS011;71117;52.352;4.808;2024-03-08T09:09:27;1.23;;;0.93;;
81703;SDS011;71117;52.352;4.808;2024-03-08T09:11:52;0.60;;;0.57;;
81703;SDS011;71117;52.352;4.808;2024-03-08T09:14:19;1.05;;;1.05;;
81703;SDS011;71117;52.352;4.808;2024-03-08T09:16:46;1.48;;;1.38;;
81703;SDS011;71117;52.352;4.808;2024-03-08T09:19:15;1.05;;;0.85;;
81703;SDS011;71117;52.352;4.808;2024-03-08T09:21:42;0.52;;;0.52;;
81703;SDS011;71117;52.352;4.808;2024-03-08T09:24:07;0.10;;;0.10;;
81703;SDS011;71117;52.352;4.808;2024-03-08T09:26:33;0.40;;;0.30;;
81703;SDS011;71117;52.352;4.808;2024-03-08T09:28:58;3.55;;;1.80;;
81703;SDS011;71117;52.352;4.808;2024-03-08T09:31:24;0.52;;;0.52;;
81703;SDS011;71117;52.352;4.808;2024-03-08T09:33:50;1.52;;;1.42;;
81703;SDS011;71117;52.352;4.808;2024-03-08T09:36:16;0.10;;;0.10;;
81703;SDS011;71117;52.352;4.808;2024-03-08T09:38:42;0.73;;;0.60;;
81703;SDS011;71117;52.352;4.808;2024-03-08T09:41:07;1.98;;;0.70;;
81703;SDS011;71117;52.352;4.808;2024-03-08T09:43:35;4.07;;;1.88;;
81703;SDS011;71117;52.352;4.808;2024-03-08T09:46:00;1.98;;;0.75;;
81703;SDS011;71117;52.352;4.808;2024-03-08T09:48:27;0.40;;;0.28;;
81703;SDS011;71117;52.352;4.808;2024-03-08T09:50:54;4.57;;;1.42;;
81703;SDS011;71117;52.352;4.808;2024-03-08T09:53:20;0.45;;;0.45;;
81703;SDS011;71117;52.352;4.808;2024-03-08T09:55:47;1.55;;;1.30;;
81703;SDS011;71117;52.352;4.808;2024-03-08T09:58:14;0.55;;;0.55;;
81703;SDS011;71117;52.352;4.808;2024-03-08T10:00:55;0.85;;;0.77;;
81703;SDS011;71117;52.352;4.808;2024-03-08T10:03:26;0.70;;;0.70;;
81703;SDS011;71117;52.352;4.808;2024-03-08T10:05:52;0.45;;;0.45;;
81703;SDS011;71117;52.352;4.808;2024-03-08T10:08:17;0.30;;;0.30;;
81703;SDS011;71117;52.352;4.808;2024-03-08T10:10:42;1.63;;;1.05;;
81703;SDS011;71117;52.352;4.808;2024-03-08T10:13:08;3.83;;;0.90;;
81703;SDS011;71117;52.352;4.808;2024-03-08T10:15:39;0.13;;;0.13;;
81703;SDS011;71117;52.352;4.808;2024-03-08T10:18:05;0.52;;;0.52;;
81703;SDS011;71117;52.352;4.808;2024-03-08T10:20:31;1.02;;;0.95;;
81703;SDS011;71117;52.352;4.808;2024-03-08T10:23:02;1.05;;;0.85;;
81703;SDS011;71117;52.352;4.808;2024-03-08T10:25:30;0.88;;;0.88;;
81703;SDS011;71117;52.352;4.808;2024-03-08T10:27:56;2.10;;;1.15;;
81703;SDS011;71117;52.352;4.808;2024-03-08T10:30:21;0.47;;;0.47;;
81703;SDS011;71117;52.352;4.808;2024-03-08T10:32:47;0.85;;;0.55;;
81703;SDS011;71117;52.352;4.808;2024-03-08T10:35:13;1.88;;;1.02;;
81703;SDS011;71117;52.352;4.808;2024-03-08T10:37:46;0.73;;;0.73;;
81703;SDS011;71117;52.352;4.808;2024-03-08T10:40:16;2.22;;;1.15;;
81703;SDS011;71117;52.352;4.808;2024-03-08T10:42:56;3.08;;;1.50;;
81703;SDS011;71117;52.352;4.808;2024-03-08T10:45:39;2.28;;;1.50;;
81703;SDS011;71117;52.352;4.808;2024-03-08T10:50:55;0.50;;;0.50;;
81703;SDS011;71117;52.352;4.808;2024-03-08T10:53:22;1.55;;;1.45;;
81703;SDS011;71117;52.352;4.808;2024-03-08T10:55:49;0.38;;;0.38;;
81703;SDS011;71117;52.352;4.808;2024-03-08T10:58:18;2.28;;;1.55;;
81703;SDS011;71117;52.352;4.808;2024-03-08T11:00:47;4.63;;;1.70;;
81703;SDS011;71117;52.352;4.808;2024-03-08T11:06:19;1.05;;;0.90;;
81703;SDS011;71117;52.352;4.808;2024-03-08T11:08:55;1.60;;;1.35;;
81703;SDS011;71117;52.352;4.808;2024-03-08T11:11:26;1.30;;;1.20;;
81703;SDS011;71117;52.352;4.808;2024-03-08T11:13:59;1.92;;;1.40;;
81703;SDS011;71117;52.352;4.808;2024-03-08T11:16:36;3.35;;;2.25;;
81703;SDS011;71117;52.352;4.808;2024-03-08T11:21:35;1.50;;;1.40;;
81703;SDS011;71117;52.352;4.808;2024-03-08T11:24:08;1.60;;;1.45;;
81703;SDS011;71117;52.352;4.808;2024-03-08T11:30:07;1.55;;;1.45;;
81703;SDS011;71117;52.352;4.808;2024-03-08T11:32:45;2.38;;;1.75;;
81703;SDS011;71117;52.352;4.808;2024-03-08T11:35:21;2.33;;;1.52;;
81703;SDS011;71117;52.352;4.808;2024-03-08T11:37:50;2.03;;;1.48;;
81703;SDS011;71117;52.352;4.808;2024-03-08T11:40:15;2.25;;;1.88;;
81703;SDS011;71117;52.352;4.808;2024-03-08T11:42:47;5.35;;;2.55;;
81703;SDS011;71117;52.352;4.808;2024-03-08T11:45:14;2.63;;;1.95;;
81703;SDS011;71117;52.352;4.808;2024-03-08T11:47:45;1.08;;;1.05;;
81703;SDS011;71117;52.352;4.808;2024-03-08T11:50:14;4.03;;;2.30;;
81703;SDS011;71117;52.352;4.808;2024-03-08T11:52:40;2.70;;;1.88;;
81703;SDS011;71117;52.352;4.808;2024-03-08T11:55:06;2.38;;;1.58;;
81703;SDS011;71117;52.352;4.808;2024-03-08T11:57:31;1.85;;;1.50;;
81703;SDS011;71117;52.352;4.808;2024-03-08T11:59:57;2.20;;;1.88;;
81703;SDS011;71117;52.352;4.808;2024-03-08T12:02:32;3.13;;;2.25;;
81703;SDS011;71117;52.352;4.808;2024-03-08T12:05:06;2.35;;;1.75;;
81703;SDS011;71117;52.352;4.808;2024-03-08T12:07:31;4.45;;;1.80;;
81703;SDS011;71117;52.352;4.808;2024-03-08T12:10:18;3.13;;;2.42;;
81703;SDS011;71117;52.352;4.808;2024-03-08T12:12:49;3.15;;;2.22;;
81703;SDS011;71117;52.352;4.808;2024-03-08T12:15:17;0.88;;;0.85;;
81703;SDS011;71117;52.352;4.808;2024-03-08T12:17:44;1.80;;;1.45;;
81703;SDS011;71117;52.352;4.808;2024-03-08T12:20:23;2.38;;;1.83;;
81703;SDS011;71117;52.352;4.808;2024-03-08T12:22:54;3.75;;;2.17;;
81703;SDS011;71117;52.352;4.808;2024-03-08T12:25:25;2.65;;;2.13;;
81703;SDS011;71117;52.352;4.808;2024-03-08T12:27:51;2.65;;;1.73;;
81703;SDS011;71117;52.352;4.808;2024-03-08T12:35:19;2.45;;;2.10;;
81703;SDS011;71117;52.352;4.808;2024-03-08T12:37:48;2.15;;;1.88;;
81703;SDS011;71117;52.352;4.808;2024-03-08T12:40:14;1.92;;;1.30;;
81703;SDS011;71117;52.352;4.808;2024-03-08T12:42:42;2.38;;;2.17;;
81703;SDS011;71117;52.352;4.808;2024-03-08T12:45:12;2.03;;;1.50;;
81703;SDS011;71117;52.352;4.808;2024-03-08T12:47:38;2.65;;;1.85;;
81703;SDS011;71117;52.352;4.808;2024-03-08T12:50:06;4.78;;;2.00;;
81703;SDS011;71117;52.352;4.808;2024-03-08T12:52:33;3.63;;;2.17;;
81703;SDS011;71117;52.352;4.808;2024-03-08T12:54:59;3.22;;;1.90;;
81703;SDS011;71117;52.352;4.808;2024-03-08T12:57:28;2.67;;;1.83;;
81703;SDS011;71117;52.352;4.808;2024-03-08T12:59:54;1.75;;;1.55;;
81703;SDS011;71117;52.352;4.808;2024-03-08T13:02:19;1.98;;;1.75;;
81703;SDS011;71117;52.352;4.808;2024-03-08T13:04:46;3.08;;;1.80;;
81703;SDS011;71117;52.352;4.808;2024-03-08T13:07:20;2.75;;;2.55;;
81703;SDS011;71117;52.352;4.808;2024-03-08T13:09:46;2.67;;;2.47;;
81703;SDS011;71117;52.352;4.808;2024-03-08T13:12:11;3.20;;;1.58;;
81703;SDS011;71117;52.352;4.808;2024-03-08T13:14:37;2.70;;;2.08;;
81703;SDS011;71117;52.352;4.808;2024-03-08T13:17:02;3.50;;;3.00;;
81703;SDS011;71117;52.352;4.808;2024-03-08T13:19:29;2.25;;;1.95;;
81703;SDS011;71117;52.352;4.808;2024-03-08T13:21:55;1.95;;;1.13;;
81703;SDS011;71117;52.352;4.808;2024-03-08T13:24:21;2.03;;;1.90;;
81703;SDS011;71117;52.352;4.808;2024-03-08T13:26:47;3.05;;;1.55;;
81703;SDS011;71117;52.352;4.808;2024-03-08T13:29:12;1.48;;;1.27;;
81703;SDS011;71117;52.352;4.808;2024-03-08T13:31:39;2.22;;;1.45;;
81703;SDS011;71117;52.352;4.808;2024-03-08T13:34:05;1.27;;;1.17;;
81703;SDS011;71117;52.352;4.808;2024-03-08T13:36:30;1.60;;;1.50;;
81703;SDS011;71117;52.352;4.808;2024-03-08T13:39:04;2.80;;;2.60;;
81703;SDS011;71117;52.352;4.808;2024-03-08T13:41:35;2.63;;;1.73;;
81703;SDS011;71117;52.352;4.808;2024-03-08T13:44:00;2.83;;;2.00;;
81703;SDS011;71117;52.352;4.808;2024-03-08T13:46:26;2.45;;;1.63;;
81703;SDS011;71117;52.352;4.808;2024-03-08T13:48:51;2.63;;;2.10;;
81703;SDS011;71117;52.352;4.808;2024-03-08T13:51:19;2.20;;;1.55;;
81703;SDS011;71117;52.352;4.808;2024-03-08T13:53:45;2.67;;;2.03;;
81703;SDS011;71117;52.352;4.808;2024-03-08T13:56:10;1.92;;;1.10;;
81703;SDS011;71117;52.352;4.808;2024-03-08T13:58:35;1.63;;;1.52;;
81703;SDS011;71117;52.352;4.808;2024-03-08T14:01:01;1.70;;;1.48;;
81703;SDS011;71117;52.352;4.808;2024-03-08T14:03:28;2.17;;;1.52;;
81703;SDS011;71117;52.352;4.808;2024-03-08T14:05:54;2.55;;;1.65;;
81703;SDS011;71117;52.352;4.808;2024-03-08T14:08:22;1.98;;;1.33;;
81703;SDS011;71117;52.352;4.808;2024-03-08T14:10:47;2.20;;;2.00;;
81703;SDS011;71117;52.352;4.808;2024-03-08T14:13:15;1.52;;;1.38;;
81703;SDS011;71117;52.352;4.808;2024-03-08T14:15:43;3.25;;;2.15;;
81703;SDS011;71117;52.352;4.808;2024-03-08T14:18:11;3.38;;;2.20;;
81703;SDS011;71117;52.352;4.808;2024-03-08T14:20:38;1.85;;;1.75;;
81703;SDS011;71117;52.352;4.808;2024-03-08T14:23:03;1.88;;;1.67;;
81703;SDS011;71117;52.352;4.808;2024-03-08T14:25:31;1.75;;;1.25;;
81703;SDS011;71117;52.352;4.808;2024-03-08T14:27:56;2.30;;;2.03;;
81703;SDS011;71117;52.352;4.808;2024-03-08T14:30:32;2.25;;;2.05;;
81703;SDS011;71117;52.352;4.808;2024-03-08T14:33:07;2.42;;;2.10;;
81703;SDS011;71117;52.352;4.808;2024-03-08T14:35:36;1.92;;;1.80;;
81703;SDS011;71117;52.352;4.808;2024-03-08T14:38:02;3.50;;;2.08;;
81703;SDS011;71117;52.352;4.808;2024-03-08T14:40:28;1.85;;;1.73;;
81703;SDS011;71117;52.352;4.808;2024-03-08T14:42:55;4.53;;;1.60;;
81703;SDS011;71117;52.352;4.808;2024-03-08T14:45:21;2.25;;;1.67;;
81703;SDS011;71117;52.352;4.808;2024-03-08T14:47:49;2.08;;;1.42;;
81703;SDS011;71117;52.352;4.808;2024-03-08T14:50:16;1.75;;;1.55;;
81703;SDS011;71117;52.352;4.808;2024-03-08T14:52:45;4.07;;;1.52;;
81703;SDS011;71117;52.352;4.808;2024-03-08T14:55:13;1.58;;;1.33;;
81703;SDS011;71117;52.352;4.808;2024-03-08T14:57:48;2.13;;;1.83;;
81703;SDS011;71117;52.352;4.808;2024-03-08T15:00:15;2.58;;;1.77;;
81703;SDS011;71117;52.352;4.808;2024-03-08T15:02:43;4.10;;;1.98;;
81703;SDS011;71117;52.352;4.808;2024-03-08T15:05:09;1.63;;;1.52;;